Blowing Sand Mountains, Nevada Weather observations

Data are for observation ending at time listed.
 Day   Time    Ave.   Ave.  Ave.  Vector   Max.   Stn.    Total    Solar   Ave.  
  of    of     Air    Rel.  Wind   Wind    Wind   Baro.  Precip.   Rad.    Soil  
Year   Day     Temp.  Hum.  Speed  Dir.    Gust   Pres.                    Temp. 
2016   (PST)    F      %     mph   deg.    mph     mb.     in.     W/m2     F   
------------------------------------------------------------------------------
 243    6:30   55.1    20    0.0     0      0.0    882.9     0.00     182     75.9
 243    6:40   58.4    18    0.2   118      1.9    882.8     0.00     269     75.8
 243    6:50   61.7    17    0.2   124      2.4    882.8     0.00     365     75.7
 243    7:00   64.0    15    0.0     0      0.0    882.8     0.00     266     75.6
 243    7:10   66.5    14    0.0     0      0.0    882.8     0.00     163     75.6
 243    7:20   66.2    14    0.0     0      0.0    882.8     0.00     108     75.6
 243    7:30   66.2    14    0.0     0      0.0    882.8     0.00     143     75.5
 243    7:40   67.7    14    0.0     0      0.0    882.9     0.00     162     75.5
 243    7:50   66.5    14    4.3   270      6.7    883.0     0.00     223     75.5
 243    8:00   66.9    14    2.3   327      4.7    882.9     0.00     379     75.4
 243    8:10   68.3    14    1.7     5      3.9    882.9     0.00     279     75.3
 243    8:20   70.2    13    0.0     0      0.0    882.7     0.00     212     75.2
 243    8:30   71.7    13    0.0     0      0.0    882.6     0.00     240     75.2
 243    8:40   72.9    13    0.2   233      3.5    882.6     0.00     368     75.1
 243    8:50   74.1    12    3.0   240      4.3    882.6     0.00     322     75.1
 243    9:00   74.6    12    1.1   255      4.3    882.6     0.00     501     75.0
 243    9:10   76.5    11    0.0     0      0.0    882.6     0.00     401     74.9
 243    9:20   78.5    11    2.7   325      5.6    882.6     0.00     757     74.8
 243    9:30   79.3    10    2.9   330      5.0    882.5     0.00     691     74.8
 243    9:40   80.7    10    1.4   343      6.1    882.4     0.00     600     74.7
 243    9:50   82.0     9    0.6     4      3.6    882.2     0.00     533     74.7
 243   10:00   84.6     9    0.4    76      3.4    882.1     0.00     894     74.6
 243   10:10   85.9     8    0.1   253      2.2    882.0     0.00     911     74.6
 243   10:20   87.0     8    1.2    90      4.5    881.8     0.00     919     74.5
 243   10:30   88.6     8    0.7   319      3.1    881.7     0.00     895     74.5
 243   10:40   89.1     7    0.5    69      5.3    881.5     0.00     928     74.4
 243   10:50   90.4     7    1.4   127      5.0    881.5     0.00     954     74.3
 243   11:00   91.3     7    1.6   146      4.5    881.4     0.00     966     74.3
 243   11:10   92.0     7    1.8   137      5.5    881.2     0.00     976     74.2
 243   11:20   91.3     7    1.8   351      5.6    881.0     0.00     986     74.2
 243   11:30   91.3     7    4.8     4      9.7    880.9     0.00     993     74.2
 243   11:40   91.3     7    2.8    18      6.2    880.7     0.00     997     74.2
 243   11:50   92.9     7    2.9    41      8.6    880.6     0.00     998     74.2
 243   12:00   93.2     7    5.4   342     11.9    880.4     0.00     999     74.2
 243   12:10   93.6     7    2.7   345      7.1    880.2     0.00    1000     74.2
 243   12:20   94.0     7    3.4   293      8.6    879.9     0.00     999     74.2
 243   12:30   93.8     7    5.2   274      9.1    879.7     0.00     994     74.2
 243   12:40   94.9     6    4.6   244      9.9    879.5     0.00     994     74.2
 243   12:50   94.7     6    2.7    55     11.2    879.4     0.00     997     74.2
 243   13:00   96.2     6    3.1   328      8.6    879.2     0.00     984     74.2
 243   13:10   96.1     6    8.7   309     15.1    879.0     0.00     968     74.2
 243   13:20   95.3     6    8.3   311     18.9    878.9     0.00     679     74.3
 243   13:30   95.7     6   10.0   302     16.5    878.7     0.00     889     74.3
 243   13:40   95.8     6    6.9   323     11.8    878.5     0.00     952     74.3
 243   13:50   96.7     6    6.4   286     12.4    878.4     0.00     911     74.4
 243   14:00   97.3     6    7.0   310     19.0    878.2     0.00     871     74.4
 243   14:10   96.7     6    5.9     1     11.6    878.1     0.00     850     74.4
 243   14:20   97.4     6    5.2   291     15.4    877.9     0.00     836     74.5
 243   14:30   98.3     6    6.7   294     11.2    877.9     0.00     824     74.6
 243   14:40   97.9     5    8.0   266     14.2    877.7     0.00     793     74.7
 243   14:50   97.9     5    6.7   266     13.2    877.7     0.00     786     74.7
 243   15:00   97.4     5    9.9   301     15.1    877.7     0.00     420     74.8
 243   15:10   96.6     5    6.3   306     11.6    877.7     0.00     325     74.9
 243   15:20   96.1     5    5.9   248     12.4    877.7     0.00     358     74.9
 243   15:30   96.9     5   12.3   269     19.7    877.6     0.00     597     74.9
 243   15:40   96.6     5    9.4   289     17.2    877.6     0.00     367     75.0
 243   15:50   97.0     5   10.1   268     19.6    877.5     0.00     577     75.1
 243   16:00   97.4     5   12.3   264     19.4    877.4     0.00     529     75.1
 243   16:10   97.0     5   11.6   281     22.0    877.4     0.00     509     75.2
 243   16:20   96.7     5    8.3   303     15.6    877.4     0.00     441     75.3
 243   16:30   96.6     5   12.1   265     19.0    877.3     0.00     403     75.4
 243   16:40   95.3     5    8.8   279     15.0    877.4     0.00     146     75.5
 243   16:50   94.5     5   10.0   271     14.5    877.3     0.00     150     75.6
 243   17:00   94.3     6   13.3   280     18.2    877.3     0.00     183     75.7
 243   17:10   94.1     6   11.2   276     16.4    877.3     0.00     189     75.7
 243   17:20   93.5     6   12.1   261     17.3    877.3     0.00     130     75.8
 243   17:30   92.6     6   11.8   266     16.7    877.2     0.00      63     75.9
 243   17:40   91.9     6   11.8   270     16.7    877.2     0.00      82     76.0
 243   17:50   91.9     6    9.8   271     13.4    877.2     0.00     107     76.0
 243   18:00   91.0     6    8.2   275     12.3    877.3     0.00      47     76.1
 243   18:10   89.7     7    6.6   320      9.5    877.6     0.00      31     76.2
 243   18:20   88.9     8   12.3   346     17.8    877.6     0.00      21     76.3
 243   18:30   88.1     9   13.2   340     18.6    877.8     0.00       9     76.4
 243   18:40   87.4     9   13.1   336     17.0    877.9     0.00       4     76.5
 243   18:50   86.9     9   11.1   337     16.4    878.1     0.00       1     76.5
 243   19:00   85.9    10   10.4   342     15.4    878.2     0.00       0     76.6
 243   19:10   85.6    10   10.7   340     15.3    878.3     0.00       0     76.6
 243   19:20   85.3    10   10.2   337     14.8    878.4     0.00       0     76.7
 243   19:30   84.8    10    9.1   333     12.8    878.5     0.00       0     76.8
 243   19:40   84.0    10    8.4   348     12.4    878.6     0.00       0     76.8
 243   19:50   83.4    11   10.0     4     14.0    878.7     0.00       0     76.8
 243   20:00   83.2    11    9.7   349     14.2    878.8     0.00       0     76.9
 243   20:10   83.1    11   11.5   348     16.4    878.9     0.00       0     76.9
 243   20:20   82.8    11   10.6   342     14.7    879.0     0.00       0     77.0
 243   20:30   82.4    11    9.9   340     13.4    879.0     0.00       0     77.0
 243   20:40   81.5    11    9.2   336     13.0    879.1     0.00       0     77.1
 243   20:50   81.1    11    8.4   333     11.7    879.2     0.00       0     77.1
 243   21:00   81.1    11    8.9   338     15.0    879.4     0.00       0     77.1
 243   21:10   81.3    11    9.7   340     16.3    879.4     0.00       0     77.2
 243   21:20   81.8    11   10.5   346     17.2    879.5     0.00       0     77.2
 243   21:30   81.4    11   10.3   345     15.6    879.6     0.00       0     77.2
 243   21:40   80.9    11    8.3   356     12.1    879.6     0.00       0     77.3
 243   21:50   79.2    12    6.0    13      9.9    879.5     0.00       0     77.3
 243   22:00   78.2    12    2.4   336      7.1    879.7     0.00       0     77.3
 243   22:10   74.3    13    1.7   195      6.4    879.8     0.00       0     77.3
 243   22:20   72.1    14    1.0   184      6.6    879.8     0.00       0     77.3
 243   22:30   73.0    14    0.9   154      5.0    879.9     0.00       0     77.4
 243   22:40   73.2    14    4.1   178      7.0    880.0     0.00       0     77.4
 243   22:50   70.8    14    5.8   203      8.0    880.0     0.00       0     77.4
 243   23:00   72.0    14    3.6   192      5.9    880.1     0.00       0     77.4
 243   23:10   72.0    14    2.8   122      5.0    880.1     0.00       0     77.4
 243   23:20   71.0    14    2.7   178      5.5    880.2     0.00       0     77.4
 243   23:30   69.8    15    0.9   177      3.7    880.2     0.00       0     77.4
 243   23:40   67.6    16    1.0   157      5.0    880.3     0.00       0     77.4
 243   23:50   66.9    16    0.0     0      0.0    880.4     0.00       0     77.4
 244    0:00   67.1    16    1.5    96      3.8    880.3     0.00       0     77.4
 244    0:10   67.9    16    0.2    61      2.3    880.3     0.00       0     77.4
 244    0:20   67.0    16    0.0   253      0.6    880.3     0.00       0     77.3
 244    0:30   64.8    17    0.0     0      0.0    880.3     0.00       0     77.3
 244    0:40   64.0    17    1.2   134      3.9    880.3     0.00       0     77.3
 244    0:50   63.9    17    0.0     0      0.0    880.3     0.00       0     77.3
 244    1:00   63.8    16    0.0     0      0.0    880.3     0.00       0     77.3
 244    1:10   61.4    17    0.5   181      2.6    880.3     0.00       0     77.3
 244    1:20   61.1    17    0.0   133      1.7    880.3     0.00       0     77.3
 244    1:30   62.9    16    0.0     0      0.0    880.2     0.00       0     77.3
 244    1:40   60.8    17    0.0     0      0.0    880.2     0.00       0     77.3
 244    1:50   60.9    17    0.0     0      0.0    880.2     0.00       0     77.2
 244    2:00   60.7    17    0.0     0      0.0    880.1     0.00       0     77.2
 244    2:10   60.6    17    0.6    59      4.7    880.2     0.00       0     77.1
 244    2:20   60.4    18    0.7    42      3.2    880.1     0.00       0     77.1
 244    2:30   60.2    18    0.0     0      0.0    880.1     0.00       0     77.1
 244    2:40   59.8    18    0.0     0      0.0    880.1     0.00       0     77.1
 244    2:50   58.9    18    0.0    41      1.2    880.1     0.00       0     77.1
 244    3:00   57.9    19    0.0     0      0.0    880.1     0.00       0     77.0
 244    3:10   58.3    19    0.0     0      0.0    880.0     0.00       0     77.0
 244    3:20   57.8    19    0.0     0      0.0    880.0     0.00       0     76.9
 244    3:30   56.9    19    0.0     0      0.0    880.0     0.00       0     76.9
 244    3:40   56.8    19    0.0     0      0.0    880.0     0.00       0     76.9
 244    3:50   56.6    20    0.0     0      0.0    880.0     0.00       0     76.8
 244    4:00   56.3    19    0.0     0      0.0    880.0     0.00       0     76.8
 244    4:10   55.3    20    0.0     0      0.0    880.0     0.00       0     76.8
 244    4:20   54.4    21    0.0     0      0.0    880.0     0.00       0     76.7
 244    4:30   53.9    21    0.0     0      0.0    880.0     0.00       0     76.7
 244    4:40   53.6    22    0.0     0      0.0    880.0     0.00       0     76.7
 244    4:50   53.8    21    0.0     0      0.0    879.9     0.00       0     76.6
 244    5:00   54.2    21    0.0     0      0.0    880.0     0.00       0     76.5
 244    5:10   53.3    21    0.0     0      0.0    880.0     0.00       0     76.5
 244    5:20   52.9    22    0.0     0      0.0    880.0     0.00       2     76.5
 244    5:30   54.0    21    0.1   238      4.1    880.0     0.00       5     76.4
 244    5:40   53.0    21    1.2   217      5.3    880.1     0.00      14     76.4
 244    5:50   52.3    22    0.0   193      0.6    880.2     0.00      33     76.3
 244    6:00   52.8    22    2.0    80      4.5    880.2     0.00      58     76.2
 244    6:10   54.3    20    0.0     0      0.0    880.2     0.00      82     76.2
 244    6:20   56.0    20    0.0     0      0.0    880.2     0.00     132     76.1

Return to Blowing Sand Mountains graphs page.


Western Regional Climate Center,wrcc@dri.edu